CDT,Max TemperatureF,Mean TemperatureF,Min TemperatureF,Max Dew PointF,MeanDew PointF,Min DewpointF,Max Humidity, Mean Humidity, Min Humidity, Max Sea Level PressureIn, Mean Sea Level PressureIn, Min Sea Level PressureIn, Max VisibilityMiles, Mean VisibilityMiles, Min VisibilityMiles, Max Wind SpeedMPH, Mean Wind SpeedMPH, Max Gust SpeedMPH,PrecipitationIn, CloudCover, Events, WindDirDegrees
2013-6-1,70,61,51,57,53,46,87,74,61,29.91,29.70,29.57,10,10,10,29,13,35,T,6,,280
2013-6-2,65,56,47,45,42,37,80,60,40,30.08,30.03,29.93,10,10,10,23,9,28,T,4,,354
2013-6-3,71,57,42,47,43,40,96,65,33,30.08,30.03,29.95,10,10,10,18,8,24,0.00,1,,147
2013-6-4,61,58,54,54,52,48,93,79,64,30.09,30.05,29.99,10,6,1,25,12,31,1.34,8,Rain-Thunderstorm,118
2013-6-5,70,62,54,56,53,50,93,75,57,30.05,29.99,29.92,10,6,2,16,5,18,0.04,8,Rain,310
2013-6-6,61,57,53,54,51,48,93,79,64,30.02,29.97,29.91,10,8,3,16,9,20,0.00,7,,354
2013-6-7,66,58,50,52,50,48,93,75,56,30.04,30.00,29.94,10,9,5,12,5,28,0.00,5,,2
2013-6-8,68,58,48,56,52,47,96,77,58,29.94,29.90,29.84,10,9,5,17,9,22,0.16,4,Rain,145
2013-6-9,73,66,58,63,58,54,93,77,61,29.81,29.75,29.70,10,9,1,23,13,28,0.35,7,Rain-Thunderstorm,129
2013-6-10,76,65,53,62,59,52,93,74,54,29.90,29.85,29.78,10,8,1,10,3,16,0.00,4,,301
2013-6-11,87,73,59,65,62,57,97,73,48,29.88,29.83,29.77,10,9,4,23,7,29,T,0,,138
2013-6-12,83,73,62,72,67,58,90,82,73,29.91,29.76,29.66,10,7,0,30,13,39,1.26,6,Fog-Rain-Thunderstorm,38
2013-6-13,79,68,57,59,54,51,84,62,39,30.06,30.02,29.90,10,10,10,17,8,22,0.00,0,,13
2013-6-14,75,67,58,62,58,54,90,74,57,30.08,29.99,29.89,10,10,3,24,12,31,0.18,2,Rain-Thunderstorm,144
2013-6-15,78,70,61,66,63,60,93,78,62,30.04,29.92,29.83,10,9,1,35,9,44,0.56,4,Rain-Thunderstorm,195
2013-6-16,85,72,58,62,55,46,97,63,28,29.96,29.93,29.88,10,9,2,16,7,22,0.00,0,,279
2013-6-17,86,72,58,58,53,49,78,54,29,29.96,29.93,29.88,10,10,10,24,9,29,0.00,0,,298
2013-6-18,78,68,58,57,55,53,87,67,46,30.05,30.01,29.96,10,10,10,23,6,29,0.00,1,,70
2013-6-19,85,73,60,59,57,55,84,61,37,30.08,30.02,29.96,10,10,10,20,10,23,0.00,1,,152
2013-6-20,88,77,66,63,61,58,78,59,39,30.02,29.96,29.89,10,10,10,26,16,35,0.00,2,,164
2013-6-21,84,73,62,73,65,59,100,80,60,30.03,29.93,29.83,10,8,2,32,14,41,0.78,5,Rain-Thunderstorm,145
2013-6-22,91,78,64,71,66,61,87,63,38,30.04,29.91,29.81,10,8,2,36,12,46,0.62,4,Rain-Thunderstorm,75
2013-6-23,82,75,67,70,67,63,93,76,58,29.92,29.85,29.73,10,8,1,29,12,36,0.44,3,Rain-Thunderstorm,186
2013-6-24,75,71,66,69,65,63,93,86,79,29.99,29.89,29.81,10,9,1,24,9,29,0.53,6,Rain-Thunderstorm,156
2013-6-25,87,77,66,72,67,64,93,72,51,29.86,29.78,29.71,10,10,8,20,9,24,0.00,4,,137
2013-6-26,88,78,68,75,70,62,93,71,48,29.84,29.73,29.67,10,10,6,23,10,31,T,4,Rain-Thunderstorm,208
2013-6-27,86,76,65,64,59,53,87,61,34,29.89,29.85,29.82,10,10,10,23,12,31,0.00,0,,291
2013-6-28,81,73,64,61,57,55,78,60,42,29.88,29.81,29.77,10,9,2,32,19,39,0.02,2,Rain,309
2013-6-29,74,65,56,61,59,54,93,75,57,29.95,29.83,29.75,10,9,2,28,13,37,0.16,6,Rain,352
2013-6-30,77,65,52,53,49,43,93,62,31,30.11,30.05,29.95,10,10,10,18,10,23,0.00,0,,13